Time;durP1;ratioP1;P1;durP2;ratioP2;P2;SDS_P1;SDS_P2;PMS_P1;PMS_P2;Temp;Humidity;BMP_temperature;BMP_pressure;BME280_temperature;BME280_humidity;BME280_pressure;Samples;Min_cycle;Max_cycle;Signal;HPM_P1;HPM_P2
2023/04/12 00:00:51;;;;;;;3.53;1.70;;;;;;;9.56;59.02;95206.25;6189749;23;20185;-87
2023/04/12 00:03:21;;;;;;;2.97;1.70;;;;;;;9.48;58.55;95201.19;6189085;23;20700;-87
2023/04/12 00:05:53;;;;;;;2.67;1.50;;;;;;;9.45;59.00;95193.84;6189943;23;20162;-87
2023/04/12 00:08:23;;;;;;;3.27;1.57;;;;;;;9.41;59.02;95202.09;6189462;23;20166;-88
2023/04/12 00:10:53;;;;;;;1.80;1.63;;;;;;;9.46;59.39;95199.75;6190947;23;20163;-87
2023/04/12 00:13:26;;;;;;;5.17;1.90;;;;;;;9.43;59.66;95192.44;6190823;23;20198;-87
2023/04/12 00:15:59;;;;;;;1.97;1.63;;;;;;;9.43;59.45;95182.94;6189485;23;20158;-88
2023/04/12 00:18:27;;;;;;;2.20;2.00;;;;;;;9.46;59.89;95184.34;6189117;23;20632;-88
2023/04/12 00:20:56;;;;;;;4.10;1.73;;;;;;;9.47;59.76;95176.47;6190195;23;20194;-88
2023/04/12 00:23:28;;;;;;;4.70;2.17;;;;;;;9.49;59.74;95176.28;6189019;23;20576;-90
2023/04/12 00:25:57;;;;;;;4.70;2.20;;;;;;;9.48;59.76;95169.56;6189839;23;20261;-88
2023/04/12 00:28:27;;;;;;;4.13;1.50;;;;;;;9.40;60.03;95173.03;6189411;23;20178;-89
2023/04/12 00:30:53;;;;;;;2.80;1.70;;;;;;;9.40;60.08;95167.91;6189754;23;20170;-86
2023/04/12 00:33:23;;;;;;;5.03;1.70;;;;;;;9.50;59.71;95163.25;6189426;23;20208;-88
2023/04/12 00:35:54;;;;;;;3.03;2.00;;;;;;;9.53;59.50;95162.09;6190409;23;20495;-86
2023/04/12 00:38:21;;;;;;;2.97;1.83;;;;;;;9.55;59.63;95162.72;6188184;23;20241;-88
2023/04/12 00:40:47;;;;;;;2.27;1.53;;;;;;;9.49;59.50;95163.44;6188301;23;20194;-87
2023/04/12 00:43:17;;;;;;;2.47;1.77;;;;;;;9.50;59.68;95160.69;6189402;23;20617;-86
2023/04/12 00:45:46;;;;;;;1.90;1.30;;;;;;;9.53;59.61;95156.97;6188570;23;20190;-87
2023/04/12 00:48:16;;;;;;;3.07;1.50;;;;;;;9.59;59.53;95146.78;6188961;23;20170;-88
2023/04/12 00:50:43;;;;;;;3.23;1.70;;;;;;;9.60;59.72;95148.38;6188781;23;20248;-89
2023/04/12 00:53:14;;;;;;;3.00;1.60;;;;;;;9.57;59.39;95142.78;6189074;23;20174;-87
2023/04/12 00:55:51;;;;;;;2.80;1.70;;;;;;;9.53;60.04;95144.91;6188882;23;20214;-89
2023/04/12 00:58:17;;;;;;;1.73;1.60;;;;;;;9.55;60.04;95137.81;6188467;23;20154;-89
2023/04/12 01:00:48;;;;;;;2.60;1.47;;;;;;;9.64;59.80;95133.34;6188751;23;20197;-88
2023/04/12 01:03:15;;;;;;;2.63;1.40;;;;;;;9.61;59.20;95124.25;6188428;23;20162;-89
2023/04/12 01:05:53;;;;;;;2.93;1.40;;;;;;;9.61;59.14;95126.03;6189828;23;20163;-89
2023/04/12 01:08:30;;;;;;;1.87;1.40;;;;;;;9.62;59.56;95123.25;6189435;23;20158;-86
2023/04/12 01:11:07;;;;;;;1.60;1.50;;;;;;;9.59;59.43;95117.72;6188967;23;20170;-89
2023/04/12 01:13:44;;;;;;;1.60;1.40;;;;;;;9.59;59.38;95118.50;6190002;23;20193;-87
2023/04/12 01:16:19;;;;;;;2.50;1.20;;;;;;;9.59;59.36;95115.94;6188901;23;20154;-86
2023/04/12 01:18:52;;;;;;;2.50;1.50;;;;;;;9.64;59.40;95120.50;6188795;23;20165;-86
2023/04/12 01:21:26;;;;;;;1.83;1.30;;;;;;;9.73;59.42;95116.84;6187864;23;20253;-88
2023/04/12 01:24:22;;;;;;;1.50;1.40;;;;;;;9.80;59.23;95122.06;6189365;23;20218;-88
2023/04/12 01:26:56;;;;;;;2.50;1.30;;;;;;;9.78;59.13;95119.69;6188955;23;20173;-89
2023/04/12 01:29:28;;;;;;;2.67;1.70;;;;;;;9.70;59.26;95120.59;6189578;23;20213;-88
2023/04/12 01:31:58;;;;;;;2.57;1.40;;;;;;;9.73;58.85;95118.63;6190490;23;20618;-88
2023/04/12 01:34:28;;;;;;;3.10;1.40;;;;;;;9.74;58.76;95121.03;6190884;23;20221;-89
2023/04/12 01:36:58;;;;;;;1.90;1.40;;;;;;;9.73;58.98;95116.06;6190054;23;20269;-89
2023/04/12 01:39:26;;;;;;;2.70;1.40;;;;;;;9.74;58.69;95118.44;6189876;23;20155;-88
2023/04/12 01:41:55;;;;;;;2.00;1.37;;;;;;;9.77;58.65;95114.72;6190390;23;20277;-87
2023/04/12 01:44:23;;;;;;;1.87;1.33;;;;;;;9.80;58.92;95116.94;6190431;23;20198;-88
2023/04/12 01:46:51;;;;;;;2.97;1.17;;;;;;;9.81;59.33;95121.09;6189791;23;20174;-88
2023/04/12 01:49:19;;;;;;;1.83;1.10;;;;;;;9.78;60.00;95113.75;6189667;23;20170;-86
2023/04/12 01:51:58;;;;;;;2.93;1.63;;;;;;;9.76;60.50;95116.50;6189095;23;20599;-88
2023/04/12 01:54:27;;;;;;;3.47;1.70;;;;;;;9.78;61.09;95111.19;6189702;23;20198;-87
2023/04/12 01:56:58;;;;;;;3.63;1.50;;;;;;;9.79;62.10;95117.91;6189680;23;20174;-89
2023/04/12 01:59:41;;;;;;;1.87;1.40;;;;;;;9.77;61.82;95119.88;6190011;23;20158;-89
2023/04/12 02:02:10;;;;;;;1.40;1.10;;;;;;;9.69;62.31;95119.00;6189159;23;20197;-86
2023/04/12 02:04:39;;;;;;;1.67;1.30;;;;;;;9.68;62.45;95112.25;6189665;23;20591;-89
2023/04/12 02:07:08;;;;;;;2.03;1.30;;;;;;;9.62;63.44;95107.06;6190334;23;20201;-87
2023/04/12 02:09:50;;;;;;;1.37;1.27;;;;;;;9.55;63.84;95117.28;6189087;23;20233;-89
2023/04/12 02:12:22;;;;;;;1.43;1.30;;;;;;;9.56;63.73;95115.50;6188999;23;20241;-88
2023/04/12 02:15:01;;;;;;;3.27;1.50;;;;;;;9.56;65.45;95112.94;6190276;23;20780;-88
2023/04/12 02:17:28;;;;;;;2.77;1.53;;;;;;;9.52;65.21;95111.69;6189975;23;20163;-87
2023/04/12 02:19:58;;;;;;;2.63;1.50;;;;;;;9.47;66.35;95108.84;6189646;23;20389;-87
2023/04/12 02:22:25;;;;;;;1.90;1.73;;;;;;;9.47;67.28;95106.28;6188505;23;20513;-87
2023/04/12 02:24:51;;;;;;;1.87;1.60;;;;;;;9.44;68.38;95109.22;6189120;23;20195;-88
2023/04/12 02:27:22;;;;;;;3.20;1.73;;;;;;;9.42;68.29;95112.00;6188768;23;20186;-88
2023/04/12 02:29:49;;;;;;;2.60;1.73;;;;;;;9.25;68.67;95102.88;6188961;23;20258;-87
2023/04/12 02:32:16;;;;;;;2.83;1.70;;;;;;;9.28;68.11;95111.03;6189934;23;20180;-88
2023/04/12 02:34:43;;;;;;;3.17;1.80;;;;;;;9.29;68.63;95104.13;6190013;23;20201;-88
2023/04/12 02:37:12;;;;;;;2.03;1.63;;;;;;;9.30;69.03;95108.28;6190543;23;20181;-88
2023/04/12 02:39:40;;;;;;;2.63;1.57;;;;;;;9.29;68.85;95107.47;6191106;23;20197;-88
2023/04/12 02:42:07;;;;;;;2.43;2.00;;;;;;;9.29;69.36;95112.63;6190845;23;20194;-87
2023/04/12 02:44:37;;;;;;;1.80;1.60;;;;;;;9.20;70.18;95108.56;6190495;23;20229;-87
2023/04/12 02:47:07;;;;;;;2.27;1.63;;;;;;;9.24;69.79;95116.69;6191129;23;20166;-88
2023/04/12 02:49:34;;;;;;;1.80;1.47;;;;;;;9.14;70.41;95106.72;6191002;23;20621;-88
2023/04/12 02:52:01;;;;;;;1.63;1.40;;;;;;;9.08;70.57;95109.97;6193968;23;20170;-88
2023/04/12 02:54:27;;;;;;;1.40;1.30;;;;;;;9.03;71.26;95104.63;6191398;23;20193;-88
2023/04/12 02:56:54;;;;;;;1.93;1.50;;;;;;;8.93;72.21;95101.50;6191540;23;20175;-88
2023/04/12 02:59:20;;;;;;;2.07;1.30;;;;;;;8.90;72.77;95094.94;6192187;23;20178;-88
2023/04/12 03:01:49;;;;;;;3.23;1.60;;;;;;;8.98;72.88;95099.22;6190408;23;20201;-88
2023/04/12 03:04:18;;;;;;;2.93;1.40;;;;;;;8.99;73.42;95093.91;6191937;23;20901;-89
2023/04/12 03:06:52;;;;;;;1.87;1.60;;;;;;;9.03;73.18;95088.41;6191669;23;20174;-88
2023/04/12 03:09:21;;;;;;;3.07;1.40;;;;;;;9.04;74.39;95087.44;6193142;23;20170;-89
2023/04/12 03:11:48;;;;;;;2.50;1.63;;;;;;;9.07;73.87;95089.63;6192268;23;20261;-87
2023/04/12 03:14:14;;;;;;;3.27;1.50;;;;;;;9.08;73.87;95089.44;6192771;23;20206;-88
2023/04/12 03:16:41;;;;;;;1.77;1.57;;;;;;;9.04;74.71;95082.31;6192487;23;20185;-87
2023/04/12 03:19:09;;;;;;;2.87;1.60;;;;;;;9.04;74.40;95083.09;6191912;23;20170;-88
2023/04/12 03:21:37;;;;;;;3.47;1.70;;;;;;;9.07;73.98;95071.66;6191041;23;20201;-87
2023/04/12 03:24:04;;;;;;;2.80;1.50;;;;;;;8.93;75.56;95070.69;6192616;23;20290;-87
2023/04/12 03:26:31;;;;;;;1.60;1.33;;;;;;;8.70;77.12;95057.97;6191393;23;20184;-88
2023/04/12 03:29:00;;;;;;;2.83;1.27;;;;;;;8.70;76.16;95059.72;6192067;23;20346;-88
2023/04/12 03:31:27;;;;;;;4.47;1.50;;;;;;;8.74;77.03;95053.28;6193285;23;20174;-88
2023/04/12 03:33:53;;;;;;;2.83;1.53;;;;;;;8.66;78.11;95060.09;6191926;23;20230;-87
2023/04/12 03:36:22;;;;;;;2.30;1.67;;;;;;;8.72;77.24;95057.78;6192228;23;20637;-88
2023/04/12 03:38:50;;;;;;;1.97;1.60;;;;;;;8.82;78.09;95055.75;6191774;23;20236;-88
2023/04/12 03:41:16;;;;;;;1.97;1.23;;;;;;;8.88;77.25;95055.03;6189150;23;20854;-88
2023/04/12 03:43:42;;;;;;;1.73;1.30;;;;;;;8.88;77.35;95052.47;6189445;23;20194;-88
2023/04/12 03:46:09;;;;;;;2.37;1.50;;;;;;;8.90;77.77;95055.66;6189710;23;20175;-88
2023/04/12 03:48:36;;;;;;;3.07;1.57;;;;;;;8.87;77.49;95050.88;6189381;23;20178;-88
2023/04/12 03:51:07;;;;;;;2.50;1.50;;;;;;;8.85;78.04;95042.56;6189765;23;20438;-88
2023/04/12 03:53:34;;;;;;;1.73;1.23;;;;;;;8.81;78.07;95044.69;6189259;23;20194;-88
2023/04/12 03:56:01;;;;;;;2.93;1.33;;;;;;;8.77;77.73;95046.03;6189597;23;20167;-86
2023/04/12 03:58:28;;;;;;;2.40;1.30;;;;;;;8.77;77.54;95040.09;6189888;23;20601;-88
2023/04/12 04:00:54;;;;;;;2.93;1.60;;;;;;;8.69;77.94;95038.41;6190140;23;20198;-88
2023/04/12 04:03:25;;;;;;;3.90;1.60;;;;;;;8.60;78.90;95024.09;6188079;23;20185;-87
2023/04/12 04:05:52;;;;;;;1.43;1.30;;;;;;;8.66;78.56;95029.28;6190362;23;20590;-86
2023/04/12 04:08:19;;;;;;;2.23;1.50;;;;;;;8.67;78.39;95014.69;6190688;23;20346;-86
2023/04/12 04:10:47;;;;;;;2.83;1.80;;;;;;;8.62;79.60;95006.75;6191180;23;20257;-88
2023/04/12 04:13:14;;;;;;;1.60;1.30;;;;;;;8.57;79.64;95014.19;6189056;23;20174;-88
2023/04/12 04:15:41;;;;;;;2.17;1.57;;;;;;;8.54;78.59;95005.06;6189395;23;20181;-88
2023/04/12 04:18:10;;;;;;;2.10;1.40;;;;;;;8.54;79.47;95009.41;6189874;23;20174;-87
2023/04/12 04:20:37;;;;;;;3.13;1.60;;;;;;;8.54;79.20;95010.19;6188904;23;20178;-88
2023/04/12 04:23:03;;;;;;;2.27;1.57;;;;;;;8.59;78.98;95012.22;6189237;23;20491;-87
2023/04/12 04:25:30;;;;;;;2.80;1.60;;;;;;;8.61;78.08;95013.66;6189649;23;20257;-89
2023/04/12 04:28:03;;;;;;;2.20;1.43;;;;;;;8.65;78.92;94999.50;6189591;23;20696;-87
2023/04/12 04:30:37;;;;;;;1.40;1.30;;;;;;;8.54;79.41;94999.13;6189889;23;20179;-88
2023/04/12 04:33:06;;;;;;;1.50;1.30;;;;;;;8.53;79.21;95005.22;6189601;23;20192;-88
2023/04/12 04:35:32;;;;;;;2.10;1.43;;;;;;;8.54;79.11;94999.94;6189169;23;20242;-88
2023/04/12 04:38:01;;;;;;;3.70;1.70;;;;;;;8.45;79.86;95001.00;6189359;23;20174;-88
2023/04/12 04:40:30;;;;;;;2.40;1.47;;;;;;;8.45;80.04;94995.09;6189677;23;20174;-86
2023/04/12 04:42:59;;;;;;;3.70;1.50;;;;;;;8.38;80.81;94996.75;6189600;23;20178;-88
2023/04/12 04:45:33;;;;;;;2.93;1.30;;;;;;;8.24;80.51;94995.75;6189184;23;20194;-87
2023/04/12 04:48:05;;;;;;;2.30;1.33;;;;;;;8.21;81.19;94990.97;6190129;23;20182;-88
2023/04/12 04:50:31;;;;;;;1.77;1.50;;;;;;;8.19;80.86;94990.34;6189005;23;20497;-88
2023/04/12 04:53:00;;;;;;;1.53;1.40;;;;;;;8.14;82.14;94995.19;6188583;23;20200;-88
2023/04/12 04:55:28;;;;;;;1.83;1.30;;;;;;;8.15;81.55;94984.78;6187028;23;20250;-87
2023/04/12 04:57:59;;;;;;;3.43;1.70;;;;;;;8.25;81.13;94985.31;6187563;23;20178;-86
2023/04/12 05:00:26;;;;;;;1.80;1.40;;;;;;;8.32;81.57;94983.66;6189555;23;20217;-88
2023/04/12 05:02:55;;;;;;;3.30;1.20;;;;;;;8.34;81.05;94975.00;6187838;23;20559;-86
2023/04/12 05:05:24;;;;;;;5.13;1.77;;;;;;;8.41;80.99;94984.38;6187112;23;20675;-87
2023/04/12 05:07:51;;;;;;;3.57;1.70;;;;;;;8.46;80.45;94976.94;6186210;23;20178;-86
2023/04/12 05:10:17;;;;;;;2.83;1.40;;;;;;;8.52;80.18;94971.09;6187610;23;20181;-87
2023/04/12 05:12:44;;;;;;;3.00;1.57;;;;;;;8.49;80.24;94975.78;6188814;23;20178;-87
2023/04/12 05:15:12;;;;;;;2.80;1.50;;;;;;;8.49;80.58;94960.38;6189747;23;20198;-87
2023/04/12 05:17:39;;;;;;;2.90;1.37;;;;;;;8.42;80.98;94960.31;6190603;23;20244;-87
2023/04/12 05:20:07;;;;;;;1.50;1.40;;;;;;;8.42;81.42;94959.53;6190396;23;20177;-88
2023/04/12 05:22:35;;;;;;;4.07;2.07;;;;;;;8.43;81.28;94961.13;6190462;23;20258;-88
2023/04/12 05:25:02;;;;;;;2.30;1.77;;;;;;;8.41;82.18;94952.81;6190330;23;20197;-89
2023/04/12 05:27:29;;;;;;;1.90;1.40;;;;;;;8.34;81.50;94942.44;6190292;23;20186;-87
2023/04/12 05:29:56;;;;;;;2.20;1.60;;;;;;;8.29;82.98;94935.25;6190925;23;20233;-89
2023/04/12 05:32:23;;;;;;;2.07;1.40;;;;;;;8.24;82.41;94937.56;6190418;23;20683;-88
2023/04/12 05:34:49;;;;;;;2.53;1.73;;;;;;;8.24;83.96;94939.34;6190044;23;20885;-88
2023/04/12 05:37:16;;;;;;;4.77;2.03;;;;;;;8.35;83.54;94925.28;6190342;23;20182;-88
2023/04/12 05:39:43;;;;;;;2.07;1.50;;;;;;;8.25;82.75;94930.69;6190943;23;20178;-87
2023/04/12 05:42:10;;;;;;;3.40;2.17;;;;;;;8.24;83.17;94931.66;6190923;23;20202;-87
2023/04/12 05:44:36;;;;;;;1.70;1.30;;;;;;;8.34;82.61;94921.94;6190922;23;20194;-88
2023/04/12 05:47:03;;;;;;;3.30;1.83;;;;;;;8.30;85.19;94926.59;6190165;23;20178;-87
2023/04/12 05:49:30;;;;;;;3.50;2.03;;;;;;;8.29;84.04;94917.31;6189421;23;20174;-88
2023/04/12 05:51:57;;;;;;;1.77;1.60;;;;;;;8.41;83.84;94914.31;6191670;23;20175;-87
2023/04/12 05:54:24;;;;;;;2.43;1.60;;;;;;;8.46;82.55;94909.47;6190980;23;20201;-87
2023/04/12 05:57:01;;;;;;;1.60;1.40;;;;;;;8.35;82.27;94909.91;6191586;23;20174;-87
2023/04/12 05:59:27;;;;;;;2.60;1.73;;;;;;;8.38;82.01;94906.97;6191434;23;20671;-88
2023/04/12 06:01:53;;;;;;;2.37;1.30;;;;;;;8.36;82.69;94899.47;6189969;23;20194;-87
2023/04/12 06:04:20;;;;;;;3.03;1.73;;;;;;;8.40;83.04;94899.91;6191501;23;20202;-88
2023/04/12 06:06:47;;;;;;;2.73;1.50;;;;;;;8.49;82.37;94898.81;6191312;23;20178;-89
2023/04/12 06:09:18;;;;;;;2.00;1.60;;;;;;;8.39;82.33;94895.75;6191259;23;20204;-87
2023/04/12 06:11:52;;;;;;;2.57;1.40;;;;;;;8.25;82.53;94895.56;6193921;23;20158;-88
2023/04/12 06:14:18;;;;;;;1.50;1.33;;;;;;;8.24;84.33;94888.84;6193632;23;20224;-88
2023/04/12 06:16:45;;;;;;;2.63;1.37;;;;;;;8.13;84.15;94901.31;6192643;23;20182;-87
2023/04/12 06:19:11;;;;;;;3.27;1.73;;;;;;;8.05;86.60;94891.16;6193185;23;20198;-88
2023/04/12 06:21:38;;;;;;;4.37;1.93;;;;;;;8.07;85.17;94889.22;6192975;23;20205;-87
2023/04/12 06:24:05;;;;;;;2.00;1.50;;;;;;;8.18;85.89;94875.94;6190955;23;20233;-87
2023/04/12 06:26:31;;;;;;;1.90;1.43;;;;;;;8.17;85.56;94879.47;6192576;23;20174;-87
2023/04/12 06:28:59;;;;;;;4.07;1.80;;;;;;;8.21;84.35;94888.41;6191644;23;20178;-88
2023/04/12 06:31:25;;;;;;;2.10;1.50;;;;;;;8.10;85.31;94879.38;6192868;23;20178;-87
2023/04/12 06:33:52;;;;;;;1.40;1.30;;;;;;;8.09;85.56;94870.09;6192918;23;20198;-88
2023/04/12 06:36:18;;;;;;;4.77;3.60;;;;;;;8.11;86.16;94870.72;6192289;23;20219;-87
2023/04/12 06:38:45;;;;;;;4.23;2.03;;;;;;;8.21;85.86;94871.25;6192003;23;20178;-85
2023/04/12 06:41:11;;;;;;;3.63;1.73;;;;;;;8.35;85.71;94856.03;6193449;23;20182;-87
2023/04/12 06:43:38;;;;;;;3.53;1.93;;;;;;;8.48;85.96;94861.31;6191700;23;20198;-86
2023/04/12 06:46:07;;;;;;;1.63;1.47;;;;;;;8.50;85.51;94862.72;6191024;23;20205;-85
2023/04/12 06:48:34;;;;;;;1.93;1.60;;;;;;;8.53;86.42;94851.31;6190755;23;20180;-86
2023/04/12 06:51:00;;;;;;;3.67;1.77;;;;;;;8.54;84.44;94850.34;6190690;23;20185;-85
2023/04/12 06:53:27;;;;;;;3.70;1.70;;;;;;;8.45;87.19;94844.53;6192108;23;20468;-87
2023/04/12 06:55:53;;;;;;;3.07;1.50;;;;;;;8.44;86.03;94845.50;6192601;23;20641;-88
2023/04/12 06:58:20;;;;;;;3.00;1.90;;;;;;;8.40;86.00;94846.03;6192760;23;20198;-88
2023/04/12 07:00:48;;;;;;;2.73;1.50;;;;;;;8.25;87.21;94851.19;6193262;23;20171;-88
2023/04/12 07:03:16;;;;;;;2.23;1.60;;;;;;;8.23;86.54;94846.22;6192508;23;20194;-87
2023/04/12 07:05:43;;;;;;;2.67;1.63;;;;;;;8.28;87.97;94840.53;6192930;23;20162;-89
2023/04/12 07:08:10;;;;;;;1.40;1.30;;;;;;;8.27;88.04;94844.09;6192033;23;20178;-83
2023/04/12 07:10:36;;;;;;;3.97;1.70;;;;;;;8.34;88.16;94842.44;6192088;23;20232;-88
2023/04/12 07:13:06;;;;;;;3.57;1.50;;;;;;;8.26;89.04;94843.31;6191995;23;20872;-87
2023/04/12 07:15:32;;;;;;;2.17;1.90;;;;;;;8.38;89.28;94835.97;6191219;23;20194;-87
2023/04/12 07:17:58;;;;;;;3.00;1.70;;;;;;;8.43;88.75;94831.09;6191426;23;20178;-88
2023/04/12 07:20:26;;;;;;;4.60;2.10;;;;;;;8.51;88.99;94827.59;6192673;23;20178;-88
2023/04/12 07:22:52;;;;;;;2.97;1.50;;;;;;;8.60;88.50;94832.44;6188503;23;20198;-87
2023/04/12 07:25:19;;;;;;;2.10;1.60;;;;;;;8.76;88.05;94836.53;6189995;23;20198;-86
2023/04/12 07:27:45;;;;;;;3.67;1.70;;;;;;;8.82;88.52;94835.03;6190721;23;20184;-87
2023/04/12 07:30:13;;;;;;;3.87;1.70;;;;;;;8.66;87.58;94823.22;6188860;23;20174;-87
2023/04/12 07:32:39;;;;;;;3.50;2.03;;;;;;;8.65;89.16;94829.34;6190220;23;20170;-86
2023/04/12 07:35:06;;;;;;;2.13;1.53;;;;;;;8.63;89.40;94821.81;6191566;23;20198;-86
2023/04/12 07:37:35;;;;;;;2.67;1.70;;;;;;;8.69;89.87;94822.06;6191089;23;20185;-87
2023/04/12 07:40:02;;;;;;;1.87;1.77;;;;;;;8.68;89.06;94808.41;6190329;23;20178;-86
2023/04/12 07:42:28;;;;;;;2.40;1.50;;;;;;;8.80;88.60;94808.75;6188949;23;20225;-87
2023/04/12 07:44:57;;;;;;;2.80;1.73;;;;;;;8.86;89.07;94803.66;6190281;23;20856;-86
2023/04/12 07:47:23;;;;;;;2.93;1.70;;;;;;;8.87;88.28;94792.41;6191052;23;20231;-89
2023/04/12 07:49:50;;;;;;;2.63;1.83;;;;;;;8.96;89.61;94793.88;6190269;23;20700;-86
2023/04/12 07:52:16;;;;;;;2.47;1.60;;;;;;;8.99;90.21;94792.72;6188567;23;20256;-84
2023/04/12 07:54:44;;;;;;;2.53;1.90;;;;;;;9.15;89.96;94784.72;6188511;23;20273;-85
2023/04/12 07:57:10;;;;;;;2.83;1.67;;;;;;;9.17;90.32;94787.13;6187956;23;20185;-87
2023/04/12 07:59:37;;;;;;;2.53;1.97;;;;;;;9.14;90.36;94772.06;6188491;23;20252;-85
2023/04/12 08:02:04;;;;;;;2.47;1.80;;;;;;;9.04;93.22;94780.13;6188859;23;20194;-87
2023/04/12 08:04:33;;;;;;;3.13;2.00;;;;;;;9.18;91.01;94789.50;6189338;23;20708;-87
2023/04/12 08:07:00;;;;;;;3.93;1.73;;;;;;;9.31;90.56;94781.88;6190113;23;20367;-84
2023/04/12 08:09:26;;;;;;;2.40;1.77;;;;;;;9.31;91.60;94781.88;6190237;23;20236;-88
2023/04/12 08:11:54;;;;;;;4.20;1.93;;;;;;;9.45;91.36;94779.38;6190514;23;20249;-88
2023/04/12 08:14:21;;;;;;;3.67;1.80;;;;;;;9.41;89.63;94773.84;6189839;23;20233;-86
2023/04/12 08:16:47;;;;;;;3.20;1.60;;;;;;;9.41;90.00;94773.84;6191294;23;20178;-88
2023/04/12 08:19:14;;;;;;;3.23;1.80;;;;;;;9.43;91.19;94763.38;6191007;23;20189;-86
2023/04/12 08:21:40;;;;;;;3.83;2.00;;;;;;;9.43;92.11;94761.56;6192929;23;20178;-87
2023/04/12 08:24:07;;;;;;;2.23;1.80;;;;;;;9.39;92.22;94754.47;6191413;23;20277;-88
2023/04/12 08:26:34;;;;;;;3.00;1.80;;;;;;;9.31;92.99;94747.69;6190183;23;20226;-87
2023/04/12 08:29:02;;;;;;;1.90;1.80;;;;;;;9.15;94.58;94753.91;6191220;23;20174;-85
2023/04/12 08:31:29;;;;;;;2.10;1.80;;;;;;;9.26;93.95;94740.53;6191449;23;20181;-86
2023/04/12 08:33:56;;;;;;;2.30;1.67;;;;;;;9.11;95.41;94741.63;6190503;23;20690;-88
2023/04/12 08:36:22;;;;;;;5.43;1.50;;;;;;;9.14;97.76;94736.91;6189959;23;20684;-85
2023/04/12 08:38:51;;;;;;;2.57;1.67;;;;;;;9.27;96.44;94725.91;6190176;23;20524;-86
2023/04/12 08:41:18;;;;;;;2.40;1.70;;;;;;;9.16;96.24;94724.69;6188038;23;20229;-87
2023/04/12 08:43:46;;;;;;;2.27;1.57;;;;;;;9.10;97.03;94720.28;6188334;23;20205;-86
2023/04/12 08:46:15;;;;;;;1.90;1.50;;;;;;;9.04;98.73;94713.38;6189938;23;20847;-87
2023/04/12 08:48:44;;;;;;;2.70;1.40;;;;;;;9.08;98.42;94706.84;6190548;23;20186;-88
2023/04/12 08:51:13;;;;;;;2.27;1.53;;;;;;;9.13;98.81;94703.72;6189625;23;20403;-84
2023/04/12 08:53:39;;;;;;;2.30;1.67;;;;;;;9.15;99.01;94699.97;6189305;23;20190;-86
2023/04/12 08:56:09;;;;;;;2.30;1.50;;;;;;;9.03;98.57;94700.72;6190944;23;20209;-89
2023/04/12 08:58:38;;;;;;;1.43;1.33;;;;;;;9.14;99.89;94689.91;6190142;23;20178;-87
2023/04/12 09:01:10;;;;;;;1.90;1.67;;;;;;;9.18;100.00;94680.84;6189976;23;20178;-86
2023/04/12 09:03:40;;;;;;;1.63;1.53;;;;;;;9.20;100.00;94689.16;6185179;23;20451;-85
2023/04/12 09:06:08;;;;;;;2.63;1.63;;;;;;;9.21;99.27;94683.03;6191426;23;20174;-87
2023/04/12 09:08:35;;;;;;;3.00;1.80;;;;;;;9.26;100.00;94675.53;6191038;23;20560;-86
2023/04/12 09:11:02;;;;;;;2.10;1.87;;;;;;;9.41;100.00;94665.94;6191620;23;20205;-86
2023/04/12 09:13:41;;;;;;;2.43;1.80;;;;;;;9.63;100.00;94669.94;6191403;23;20166;-86
2023/04/12 09:16:08;;;;;;;3.00;1.50;;;;;;;9.83;96.36;94672.59;6192324;23;20207;-87
2023/04/12 09:18:48;;;;;;;2.50;1.93;;;;;;;10.13;99.41;94664.53;6190864;23;20180;-86
2023/04/12 09:21:14;;;;;;;2.37;1.90;;;;;;;10.13;97.87;94665.34;6191649;23;20221;-88
2023/04/12 09:23:40;;;;;;;2.80;2.00;;;;;;;10.23;96.95;94662.41;6191375;23;20201;-89
2023/04/12 09:26:27;;;;;;;1.90;1.80;;;;;;;10.24;95.17;94656.25;6188144;23;20181;-86
2023/04/12 09:28:53;;;;;;;2.20;2.00;;;;;;;10.31;95.14;94657.06;6188452;23;20177;-87
2023/04/12 09:31:19;;;;;;;2.60;2.40;;;;;;;10.43;94.37;94652.91;6188474;23;20170;-87
2023/04/12 09:33:47;;;;;;;2.00;1.70;;;;;;;10.53;93.60;94648.16;6189138;23;20201;-85
2023/04/12 09:36:16;;;;;;;2.03;1.80;;;;;;;10.61;93.53;94639.44;6192523;23;20174;-90
2023/04/12 09:38:58;;;;;;;2.00;1.80;;;;;;;10.68;91.39;94632.50;6191533;23;20178;-87
2023/04/12 09:41:26;;;;;;;1.97;1.77;;;;;;;10.61;93.16;94624.00;6192419;23;20158;-88
2023/04/12 09:43:52;;;;;;;3.67;1.97;;;;;;;10.56;91.81;94626.38;6191697;23;20198;-88
2023/04/12 09:46:19;;;;;;;2.63;1.80;;;;;;;10.68;92.88;94619.63;6194276;23;20178;-88
2023/04/12 09:51:51;;;;;;;4.53;1.70;;;;;;;10.98;90.93;94600.13;6193890;23;20715;-89
2023/04/12 09:54:28;;;;;;;3.53;1.80;;;;;;;11.08;90.53;94594.56;6194178;23;20194;-89
2023/04/12 09:57:16;;;;;;;;;;;;;;;;;;;;;
2023/04/12 09:59:44;;;;;;;1.73;1.50;;;;;;;11.59;88.88;94586.81;6194552;23;20210;-89
2023/04/12 10:02:15;;;;;;;1.50;1.40;;;;;;;12.05;85.14;94591.72;6194343;23;20454;-88
2023/04/12 10:04:57;;;;;;;1.83;1.43;;;;;;;12.40;80.89;94581.69;6192770;23;20206;-90
2023/04/12 10:07:24;;;;;;;1.43;1.17;;;;;;;12.59;76.59;94579.16;6193660;23;20185;-88
2023/04/12 10:09:50;;;;;;;1.33;1.20;;;;;;;12.82;77.35;94581.09;6192822;23;20182;-87
2023/04/12 10:12:44;;;;;;;2.13;1.50;;;;;;;12.86;80.48;94595.19;6193725;23;20249;-88
2023/04/12 10:15:14;;;;;;;1.53;1.30;;;;;;;12.94;77.92;94575.00;6192618;23;20195;-86
2023/04/12 10:17:44;;;;;;;2.07;1.20;;;;;;;12.92;79.13;94558.94;6192090;23;20230;-86
2023/04/12 10:20:24;;;;;;;2.60;1.50;;;;;;;12.75;76.99;94566.47;6192056;23;20722;-84
2023/04/12 10:22:52;;;;;;;2.70;1.50;;;;;;;12.89;76.07;94558.59;6190392;23;20194;-85
2023/04/12 10:25:20;;;;;;;1.33;1.23;;;;;;;13.12;74.54;94553.53;6190812;23;20269;-84
2023/04/12 10:27:50;;;;;;;1.40;1.20;;;;;;;13.11;73.33;94559.69;6190657;23;20175;-86
2023/04/12 10:30:24;;;;;;;1.17;1.07;;;;;;;13.41;71.98;94537.28;6191502;23;20184;-88
2023/04/12 10:33:21;;;;;;;2.80;1.43;;;;;;;13.75;72.52;94537.63;6193216;23;20155;-85
2023/04/12 10:35:59;;;;;;;1.33;1.10;;;;;;;14.09;70.77;94531.72;6192406;23;20487;-85
2023/04/12 10:38:32;;;;;;;1.77;1.30;;;;;;;14.45;69.46;94530.72;6192648;23;20159;-87
2023/04/12 10:41:16;;;;;;;1.83;1.00;;;;;;;14.59;68.02;94526.13;6191143;23;20189;-84
2023/04/12 10:43:44;;;;;;;2.13;1.50;;;;;;;14.49;68.07;94521.50;6187879;23;20198;-85
2023/04/12 10:46:49;;;;;;;1.37;1.27;;;;;;;14.64;68.54;94518.44;6190224;23;20182;-85
2023/04/12 10:49:16;;;;;;;1.02;1.02;;;;;;;14.37;65.06;94507.75;6190103;23;20294;-84
2023/04/12 10:52:14;;;;;;;1.63;1.50;;;;;;;14.33;67.06;94511.00;6187683;23;20177;-84
2023/04/12 10:54:41;;;;;;;2.40;1.50;;;;;;;14.14;70.11;94505.94;6187793;23;20199;-84
2023/04/12 10:57:44;;;;;;;2.40;1.40;;;;;;;14.02;69.82;94507.75;6185793;23;20244;-85
2023/04/12 11:00:11;;;;;;;1.10;1.00;;;;;;;13.79;70.41;94499.94;6184267;23;20166;-85
2023/04/12 11:03:10;;;;;;;1.10;1.00;;;;;;;13.75;67.97;94494.44;6184894;23;20185;-84
2023/04/12 11:06:00;;;;;;;2.37;1.10;;;;;;;13.76;69.18;94490.03;6188289;23;20222;-85
2023/04/12 11:08:28;;;;;;;0.97;0.93;;;;;;;13.73;68.10;94491.28;6187688;23;20201;-85
2023/04/12 11:11:04;;;;;;;1.30;1.10;;;;;;;13.63;68.14;94498.00;6187729;23;20174;-86
2023/04/12 11:13:35;;;;;;;1.30;1.20;;;;;;;13.59;68.97;94484.72;6189320;23;20166;-86
2023/04/12 11:16:03;;;;;;;1.43;1.20;;;;;;;13.54;68.41;94487.19;6190216;23;20162;-84
2023/04/12 11:18:33;;;;;;;2.10;1.07;;;;;;;13.63;67.88;94477.31;6187642;23;20178;-85
2023/04/12 11:21:00;;;;;;;1.20;1.10;;;;;;;13.73;68.84;94483.50;6187393;23;20217;-86
2023/04/12 11:23:28;;;;;;;1.27;1.13;;;;;;;13.97;68.56;94478.38;6187943;23;20593;-88
2023/04/12 11:25:54;;;;;;;1.87;1.13;;;;;;;14.14;66.87;94472.28;6187800;23;20178;-89
2023/04/12 11:28:22;;;;;;;15.17;12.33;;;;;;;14.34;66.72;94471.94;6187207;23;20182;-88
2023/04/12 11:30:50;;;;;;;1.47;1.37;;;;;;;14.46;66.00;94464.97;6190244;23;20233;-88
2023/04/12 11:33:31;;;;;;;1.43;1.20;;;;;;;14.14;66.61;94464.53;6190700;23;20201;-87
2023/04/12 11:35:57;;;;;;;2.50;1.37;;;;;;;13.87;68.08;94449.66;6191295;23;20159;-86
2023/04/12 11:38:24;;;;;;;1.30;1.20;;;;;;;13.72;68.60;94455.28;6190703;23;20181;-87
2023/04/12 11:40:52;;;;;;;1.37;1.20;;;;;;;13.74;69.34;94461.81;6191114;23;20181;-86
2023/04/12 11:43:19;;;;;;;1.43;1.23;;;;;;;13.75;69.20;94463.38;6191211;23;20194;-86
2023/04/12 11:45:46;;;;;;;1.23;1.10;;;;;;;13.76;69.81;94446.84;6192030;23;20185;-86
2023/04/12 11:48:12;;;;;;;1.40;1.20;;;;;;;13.89;69.87;94432.91;6190625;23;20179;-86
2023/04/12 11:50:40;;;;;;;2.40;1.27;;;;;;;13.95;69.03;94449.34;6190006;23;20189;-88
2023/04/12 11:53:11;;;;;;;1.63;1.52;;;;;;;13.93;68.47;94452.16;6190232;23;20175;-86
2023/04/12 11:55:38;;;;;;;2.50;1.60;;;;;;;14.02;68.38;94452.63;6190152;23;20198;-87